MMTO

Licenciado Adolfo Lopez Mateos International Airport

Airport
ICAO code
MMTO
IATA Code
TLC
Summary
ICAO Region
CARSAM
ICAO Territory
Location

San Nicolas Tolentino, Mexico

Serving
Toluca
Elevation
8466 ft
Coordinates
19° 20' 13" N , 99° 33' 58" W
KCC
Metar
MMTO 150043Z 07011KT 8SM SCT030CB 21/07 A3027 RMK 8/300 HZY

Toluca International Airport, officially named Licenciado Adolfo López Mateos International Airport is an international airport located at Toluca, State of Mexico, Mexico.

Climatology

Subtropical Highland Climate (Köppen climate classification Cwb)

Runways

Designator Length Width Surface Rops
15/33 4200 45 ASP Yes/Yes

Airport map

Aerial View

SKYbrary Partners:

Safety knowledge contributed by: